sensor_id;sensor_type;location;lat;lon;timestamp;temperature;humidity
8939;DHT22;4504;48.810;9.172;2023-03-12T00:01:15;2.20;97.40
8939;DHT22;4504;48.810;9.172;2023-03-12T00:03:43;2.10;97.50
8939;DHT22;4504;48.810;9.172;2023-03-12T00:06:11;2.10;97.70
8939;DHT22;4504;48.810;9.172;2023-03-12T00:08:38;2.10;97.90
8939;DHT22;4504;48.810;9.172;2023-03-12T00:11:07;2.10;98.10
8939;DHT22;4504;48.810;9.172;2023-03-12T00:13:34;2.10;98.30
8939;DHT22;4504;48.810;9.172;2023-03-12T00:16:07;2.10;98.40
8939;DHT22;4504;48.810;9.172;2023-03-12T00:18:34;2.10;98.50
8939;DHT22;4504;48.810;9.172;2023-03-12T00:21:02;2.10;98.30
8939;DHT22;4504;48.810;9.172;2023-03-12T00:23:30;2.10;98.20
8939;DHT22;4504;48.810;9.172;2023-03-12T00:26:01;2.10;98.30
8939;DHT22;4504;48.810;9.172;2023-03-12T00:28:28;2.10;98.30
8939;DHT22;4504;48.810;9.172;2023-03-12T00:30:55;2.10;98.50
8939;DHT22;4504;48.810;9.172;2023-03-12T00:33:23;2.10;98.70
8939;DHT22;4504;48.810;9.172;2023-03-12T00:35:50;2.10;98.80
8939;DHT22;4504;48.810;9.172;2023-03-12T00:38:18;2.00;99.10
8939;DHT22;4504;48.810;9.172;2023-03-12T00:40:47;2.00;99.50
8939;DHT22;4504;48.810;9.172;2023-03-12T00:43:14;2.00;99.90
8939;DHT22;4504;48.810;9.172;2023-03-12T00:45:41;2.00;99.90
8939;DHT22;4504;48.810;9.172;2023-03-12T00:48:08;2.00;99.90
8939;DHT22;4504;48.810;9.172;2023-03-12T00:50:35;2.00;99.90
8939;DHT22;4504;48.810;9.172;2023-03-12T00:53:02;2.00;99.90
8939;DHT22;4504;48.810;9.172;2023-03-12T00:55:29;2.00;99.90
8939;DHT22;4504;48.810;9.172;2023-03-12T00:57:57;2.00;99.90
8939;DHT22;4504;48.810;9.172;2023-03-12T01:00:24;2.00;99.90
8939;DHT22;4504;48.810;9.172;2023-03-12T01:02:51;2.00;99.90
8939;DHT22;4504;48.810;9.172;2023-03-12T01:05:19;2.00;99.90
8939;DHT22;4504;48.810;9.172;2023-03-12T01:07:46;2.00;99.90
8939;DHT22;4504;48.810;9.172;2023-03-12T01:10:15;2.00;99.90
8939;DHT22;4504;48.810;9.172;2023-03-12T01:12:45;1.90;99.90
8939;DHT22;4504;48.810;9.172;2023-03-12T01:15:15;1.90;99.90
8939;DHT22;4504;48.810;9.172;2023-03-12T01:17:42;1.90;99.90
8939;DHT22;4504;48.810;9.172;2023-03-12T01:20:10;1.90;99.90
8939;DHT22;4504;48.810;9.172;2023-03-12T01:22:37;1.90;99.90
8939;DHT22;4504;48.810;9.172;2023-03-12T01:25:05;1.90;99.90
8939;DHT22;4504;48.810;9.172;2023-03-12T01:27:32;1.90;99.90
8939;DHT22;4504;48.810;9.172;2023-03-12T01:29:59;1.90;99.90
8939;DHT22;4504;48.810;9.172;2023-03-12T01:32:28;2.10;99.90
8939;DHT22;4504;48.810;9.172;2023-03-12T01:34:56;1.90;99.90
8939;DHT22;4504;48.810;9.172;2023-03-12T01:37:25;1.90;99.90
8939;DHT22;4504;48.810;9.172;2023-03-12T01:39:52;1.90;99.90
8939;DHT22;4504;48.810;9.172;2023-03-12T01:42:19;1.90;99.90
8939;DHT22;4504;48.810;9.172;2023-03-12T01:44:51;1.90;99.90
8939;DHT22;4504;48.810;9.172;2023-03-12T01:47:19;1.90;99.90
8939;DHT22;4504;48.810;9.172;2023-03-12T01:49:50;2.00;99.90
8939;DHT22;4504;48.810;9.172;2023-03-12T01:52:20;2.00;99.90
8939;DHT22;4504;48.810;9.172;2023-03-12T01:54:54;2.00;99.90
8939;DHT22;4504;48.810;9.172;2023-03-12T01:57:27;2.10;99.90
8939;DHT22;4504;48.810;9.172;2023-03-12T01:59:57;2.10;99.90
8939;DHT22;4504;48.810;9.172;2023-03-12T02:02:25;2.20;99.90
8939;DHT22;4504;48.810;9.172;2023-03-12T02:05:02;2.20;99.90
8939;DHT22;4504;48.810;9.172;2023-03-12T02:07:33;2.30;99.90
8939;DHT22;4504;48.810;9.172;2023-03-12T02:10:01;2.40;99.90
8939;DHT22;4504;48.810;9.172;2023-03-12T02:12:29;2.30;99.90
8939;DHT22;4504;48.810;9.172;2023-03-12T02:14:56;2.40;99.90
8939;DHT22;4504;48.810;9.172;2023-03-12T02:17:23;2.40;99.90
8939;DHT22;4504;48.810;9.172;2023-03-12T02:19:56;2.40;99.90
8939;DHT22;4504;48.810;9.172;2023-03-12T02:22:28;2.40;99.90
8939;DHT22;4504;48.810;9.172;2023-03-12T02:24:59;2.30;99.90
8939;DHT22;4504;48.810;9.172;2023-03-12T02:27:31;2.30;99.90
8939;DHT22;4504;48.810;9.172;2023-03-12T02:29:59;2.30;99.90
8939;DHT22;4504;48.810;9.172;2023-03-12T02:32:31;2.30;99.90
8939;DHT22;4504;48.810;9.172;2023-03-12T02:35:00;2.30;99.90
8939;DHT22;4504;48.810;9.172;2023-03-12T02:37:27;2.30;99.90
8939;DHT22;4504;48.810;9.172;2023-03-12T02:39:59;2.30;99.90
8939;DHT22;4504;48.810;9.172;2023-03-12T02:42:29;2.30;99.90
8939;DHT22;4504;48.810;9.172;2023-03-12T02:44:57;2.30;99.90
8939;DHT22;4504;48.810;9.172;2023-03-12T02:47:24;2.30;99.90
8939;DHT22;4504;48.810;9.172;2023-03-12T02:49:52;2.30;99.90
8939;DHT22;4504;48.810;9.172;2023-03-12T02:52:19;2.30;99.90
8939;DHT22;4504;48.810;9.172;2023-03-12T02:54:46;2.30;99.90
8939;DHT22;4504;48.810;9.172;2023-03-12T02:57:13;2.30;99.90
8939;DHT22;4504;48.810;9.172;2023-03-12T02:59:42;2.30;99.90
8939;DHT22;4504;48.810;9.172;2023-03-12T03:02:09;2.30;99.90
8939;DHT22;4504;48.810;9.172;2023-03-12T03:04:38;2.30;99.90
8939;DHT22;4504;48.810;9.172;2023-03-12T03:07:05;2.30;99.90
8939;DHT22;4504;48.810;9.172;2023-03-12T03:09:32;2.30;99.90
8939;DHT22;4504;48.810;9.172;2023-03-12T03:12:00;2.20;99.90
8939;DHT22;4504;48.810;9.172;2023-03-12T03:14:29;2.20;99.90
8939;DHT22;4504;48.810;9.172;2023-03-12T03:16:57;2.20;99.90
8939;DHT22;4504;48.810;9.172;2023-03-12T03:19:24;2.20;99.90
8939;DHT22;4504;48.810;9.172;2023-03-12T03:21:51;2.20;99.90
8939;DHT22;4504;48.810;9.172;2023-03-12T03:24:19;2.30;99.90
8939;DHT22;4504;48.810;9.172;2023-03-12T03:26:46;2.30;99.90
8939;DHT22;4504;48.810;9.172;2023-03-12T03:29:13;2.30;99.90
8939;DHT22;4504;48.810;9.172;2023-03-12T03:31:42;2.30;99.90
8939;DHT22;4504;48.810;9.172;2023-03-12T03:34:10;2.30;99.90
8939;DHT22;4504;48.810;9.172;2023-03-12T03:36:37;2.30;99.90
8939;DHT22;4504;48.810;9.172;2023-03-12T03:39:09;2.30;99.90
8939;DHT22;4504;48.810;9.172;2023-03-12T03:41:37;2.30;99.90
8939;DHT22;4504;48.810;9.172;2023-03-12T03:44:04;2.40;99.90
8939;DHT22;4504;48.810;9.172;2023-03-12T03:46:33;2.40;99.90
8939;DHT22;4504;48.810;9.172;2023-03-12T03:49:04;2.40;99.90
8939;DHT22;4504;48.810;9.172;2023-03-12T03:51:33;2.40;99.90
8939;DHT22;4504;48.810;9.172;2023-03-12T03:54:05;2.40;99.90
8939;DHT22;4504;48.810;9.172;2023-03-12T03:56:32;2.30;99.90
8939;DHT22;4504;48.810;9.172;2023-03-12T03:59:01;2.30;99.90
8939;DHT22;4504;48.810;9.172;2023-03-12T04:01:29;2.30;99.90
8939;DHT22;4504;48.810;9.172;2023-03-12T04:03:57;2.30;99.90
8939;DHT22;4504;48.810;9.172;2023-03-12T04:06:24;2.40;99.90
8939;DHT22;4504;48.810;9.172;2023-03-12T04:08:53;2.40;99.90
8939;DHT22;4504;48.810;9.172;2023-03-12T04:11:23;2.40;99.90
8939;DHT22;4504;48.810;9.172;2023-03-12T04:13:50;2.40;99.90
8939;DHT22;4504;48.810;9.172;2023-03-12T04:16:21;2.40;99.90
8939;DHT22;4504;48.810;9.172;2023-03-12T04:18:51;2.40;99.90
8939;DHT22;4504;48.810;9.172;2023-03-12T04:21:19;2.40;99.90
8939;DHT22;4504;48.810;9.172;2023-03-12T04:23:48;2.40;99.90
8939;DHT22;4504;48.810;9.172;2023-03-12T04:26:17;2.40;99.90
8939;DHT22;4504;48.810;9.172;2023-03-12T04:28:45;2.40;99.90
8939;DHT22;4504;48.810;9.172;2023-03-12T04:31:12;2.40;99.90
8939;DHT22;4504;48.810;9.172;2023-03-12T04:33:44;2.40;99.90
8939;DHT22;4504;48.810;9.172;2023-03-12T04:36:12;2.40;99.90
8939;DHT22;4504;48.810;9.172;2023-03-12T04:38:43;2.40;99.90
8939;DHT22;4504;48.810;9.172;2023-03-12T04:41:12;2.40;99.90
8939;DHT22;4504;48.810;9.172;2023-03-12T04:43:47;2.40;99.90
8939;DHT22;4504;48.810;9.172;2023-03-12T04:46:16;2.40;99.90
8939;DHT22;4504;48.810;9.172;2023-03-12T04:48:43;2.40;99.90
8939;DHT22;4504;48.810;9.172;2023-03-12T04:51:12;2.50;99.90
8939;DHT22;4504;48.810;9.172;2023-03-12T04:53:39;2.50;99.90
8939;DHT22;4504;48.810;9.172;2023-03-12T04:56:08;2.50;99.90
8939;DHT22;4504;48.810;9.172;2023-03-12T04:58:36;2.50;99.90
8939;DHT22;4504;48.810;9.172;2023-03-12T05:01:05;2.50;99.90
8939;DHT22;4504;48.810;9.172;2023-03-12T05:03:32;2.50;99.90
8939;DHT22;4504;48.810;9.172;2023-03-12T05:06:00;2.60;99.90
8939;DHT22;4504;48.810;9.172;2023-03-12T05:08:27;2.60;99.90
8939;DHT22;4504;48.810;9.172;2023-03-12T05:10:54;2.60;99.90
8939;DHT22;4504;48.810;9.172;2023-03-12T05:13:21;2.60;99.90
8939;DHT22;4504;48.810;9.172;2023-03-12T05:15:52;2.70;99.90
8939;DHT22;4504;48.810;9.172;2023-03-12T05:18:21;2.70;99.90
8939;DHT22;4504;48.810;9.172;2023-03-12T05:20:57;2.70;99.90
8939;DHT22;4504;48.810;9.172;2023-03-12T05:23:24;2.70;99.90
8939;DHT22;4504;48.810;9.172;2023-03-12T05:25:51;2.70;99.90
8939;DHT22;4504;48.810;9.172;2023-03-12T05:28:19;2.80;99.90
8939;DHT22;4504;48.810;9.172;2023-03-12T05:30:46;2.80;99.90
8939;DHT22;4504;48.810;9.172;2023-03-12T05:33:13;2.80;99.90
8939;DHT22;4504;48.810;9.172;2023-03-12T05:35:41;2.90;99.90
8939;DHT22;4504;48.810;9.172;2023-03-12T05:38:08;2.80;99.90
8939;DHT22;4504;48.810;9.172;2023-03-12T05:40:35;2.80;99.90
8939;DHT22;4504;48.810;9.172;2023-03-12T05:43:03;2.80;99.90
8939;DHT22;4504;48.810;9.172;2023-03-12T05:45:31;2.80;99.90
8939;DHT22;4504;48.810;9.172;2023-03-12T05:47:59;2.80;99.90
8939;DHT22;4504;48.810;9.172;2023-03-12T05:50:27;2.90;99.90
8939;DHT22;4504;48.810;9.172;2023-03-12T05:52:56;2.90;99.90
8939;DHT22;4504;48.810;9.172;2023-03-12T05:55:23;2.90;99.90
8939;DHT22;4504;48.810;9.172;2023-03-12T05:57:52;2.90;99.90
8939;DHT22;4504;48.810;9.172;2023-03-12T06:00:20;2.90;99.90
8939;DHT22;4504;48.810;9.172;2023-03-12T06:02:54;2.90;99.90
8939;DHT22;4504;48.810;9.172;2023-03-12T06:05:21;3.00;99.90
8939;DHT22;4504;48.810;9.172;2023-03-12T06:07:48;3.00;99.90
8939;DHT22;4504;48.810;9.172;2023-03-12T06:10:17;3.00;99.90
8939;DHT22;4504;48.810;9.172;2023-03-12T06:12:44;3.00;99.90
8939;DHT22;4504;48.810;9.172;2023-03-12T06:15:11;3.00;99.90
8939;DHT22;4504;48.810;9.172;2023-03-12T06:17:38;3.00;99.90
8939;DHT22;4504;48.810;9.172;2023-03-12T06:20:06;3.00;99.90
8939;DHT22;4504;48.810;9.172;2023-03-12T06:22:34;2.90;99.90
8939;DHT22;4504;48.810;9.172;2023-03-12T06:25:01;2.90;99.90
8939;DHT22;4504;48.810;9.172;2023-03-12T06:27:30;2.90;99.90
8939;DHT22;4504;48.810;9.172;2023-03-12T06:29:57;2.90;99.90
8939;DHT22;4504;48.810;9.172;2023-03-12T06:32:24;2.80;99.90
8939;DHT22;4504;48.810;9.172;2023-03-12T06:34:51;2.70;99.90
8939;DHT22;4504;48.810;9.172;2023-03-12T06:37:18;2.80;99.90
8939;DHT22;4504;48.810;9.172;2023-03-12T06:39:45;2.80;99.90
8939;DHT22;4504;48.810;9.172;2023-03-12T06:42:12;2.80;99.90
8939;DHT22;4504;48.810;9.172;2023-03-12T06:44:41;2.80;99.90
8939;DHT22;4504;48.810;9.172;2023-03-12T06:47:08;2.80;99.90
8939;DHT22;4504;48.810;9.172;2023-03-12T06:49:35;2.80;99.90
8939;DHT22;4504;48.810;9.172;2023-03-12T06:52:03;2.80;99.90
8939;DHT22;4504;48.810;9.172;2023-03-12T06:54:30;2.90;99.90
8939;DHT22;4504;48.810;9.172;2023-03-12T06:56:57;2.90;99.90
8939;DHT22;4504;48.810;9.172;2023-03-12T06:59:25;2.90;99.90
8939;DHT22;4504;48.810;9.172;2023-03-12T07:01:54;3.00;99.90
8939;DHT22;4504;48.810;9.172;2023-03-12T07:04:21;3.00;99.90
8939;DHT22;4504;48.810;9.172;2023-03-12T07:06:48;3.00;99.90
8939;DHT22;4504;48.810;9.172;2023-03-12T07:09:16;3.10;99.90
8939;DHT22;4504;48.810;9.172;2023-03-12T07:11:43;3.00;99.90
8939;DHT22;4504;48.810;9.172;2023-03-12T07:14:10;3.00;99.90
8939;DHT22;4504;48.810;9.172;2023-03-12T07:16:37;3.10;99.90
8939;DHT22;4504;48.810;9.172;2023-03-12T07:19:05;3.10;99.90
8939;DHT22;4504;48.810;9.172;2023-03-12T07:21:32;3.10;99.90
8939;DHT22;4504;48.810;9.172;2023-03-12T07:23:59;3.20;99.90
8939;DHT22;4504;48.810;9.172;2023-03-12T07:26:32;3.20;99.90
8939;DHT22;4504;48.810;9.172;2023-03-12T07:28:59;3.20;99.90
8939;DHT22;4504;48.810;9.172;2023-03-12T07:31:26;3.20;99.90
8939;DHT22;4504;48.810;9.172;2023-03-12T07:33:53;3.20;99.90
8939;DHT22;4504;48.810;9.172;2023-03-12T07:36:22;3.30;99.90
8939;DHT22;4504;48.810;9.172;2023-03-12T07:38:49;3.30;99.90
8939;DHT22;4504;48.810;9.172;2023-03-12T07:41:16;3.30;99.90
8939;DHT22;4504;48.810;9.172;2023-03-12T07:43:43;3.30;99.90
8939;DHT22;4504;48.810;9.172;2023-03-12T07:46:10;3.20;99.90
8939;DHT22;4504;48.810;9.172;2023-03-12T07:48:37;3.20;99.90
8939;DHT22;4504;48.810;9.172;2023-03-12T07:51:04;3.30;99.90
8939;DHT22;4504;48.810;9.172;2023-03-12T07:53:33;3.30;99.90
8939;DHT22;4504;48.810;9.172;2023-03-12T07:56:00;3.40;99.90
8939;DHT22;4504;48.810;9.172;2023-03-12T07:58:27;3.40;99.90
8939;DHT22;4504;48.810;9.172;2023-03-12T08:00:54;3.40;99.90
8939;DHT22;4504;48.810;9.172;2023-03-12T08:03:21;3.50;99.90
8939;DHT22;4504;48.810;9.172;2023-03-12T08:05:55;3.50;99.90
8939;DHT22;4504;48.810;9.172;2023-03-12T08:08:23;3.50;99.90
8939;DHT22;4504;48.810;9.172;2023-03-12T08:10:52;3.70;99.90
8939;DHT22;4504;48.810;9.172;2023-03-12T08:13:19;3.60;99.90
8939;DHT22;4504;48.810;9.172;2023-03-12T08:15:48;3.60;99.90
8939;DHT22;4504;48.810;9.172;2023-03-12T08:18:16;3.70;99.90
8939;DHT22;4504;48.810;9.172;2023-03-12T08:20:43;3.60;99.90
8939;DHT22;4504;48.810;9.172;2023-03-12T08:23:10;3.70;99.90
8939;DHT22;4504;48.810;9.172;2023-03-12T08:25:37;3.70;99.90
8939;DHT22;4504;48.810;9.172;2023-03-12T08:28:05;3.70;99.90
8939;DHT22;4504;48.810;9.172;2023-03-12T08:30:32;3.80;99.90
8939;DHT22;4504;48.810;9.172;2023-03-12T08:32:59;3.80;99.90
8939;DHT22;4504;48.810;9.172;2023-03-12T08:35:27;3.80;99.90
8939;DHT22;4504;48.810;9.172;2023-03-12T08:37:54;3.90;99.90
8939;DHT22;4504;48.810;9.172;2023-03-12T08:40:21;3.90;99.90
8939;DHT22;4504;48.810;9.172;2023-03-12T08:42:48;3.90;99.90
8939;DHT22;4504;48.810;9.172;2023-03-12T08:45:17;3.90;99.90
8939;DHT22;4504;48.810;9.172;2023-03-12T08:47:44;3.90;99.90
8939;DHT22;4504;48.810;9.172;2023-03-12T08:50:12;4.00;99.90
8939;DHT22;4504;48.810;9.172;2023-03-12T08:52:39;4.10;99.90
8939;DHT22;4504;48.810;9.172;2023-03-12T08:55:07;4.20;99.90
8939;DHT22;4504;48.810;9.172;2023-03-12T08:57:34;4.20;99.90
8939;DHT22;4504;48.810;9.172;2023-03-12T09:00:02;4.20;99.90
8939;DHT22;4504;48.810;9.172;2023-03-12T09:02:31;4.30;99.90
8939;DHT22;4504;48.810;9.172;2023-03-12T09:04:58;4.30;99.90
8939;DHT22;4504;48.810;9.172;2023-03-12T09:07:25;4.40;99.90
8939;DHT22;4504;48.810;9.172;2023-03-12T09:09:54;4.40;99.90
8939;DHT22;4504;48.810;9.172;2023-03-12T09:12:21;4.50;99.90
8939;DHT22;4504;48.810;9.172;2023-03-12T09:14:48;4.50;99.90
8939;DHT22;4504;48.810;9.172;2023-03-12T09:17:15;4.50;99.90
8939;DHT22;4504;48.810;9.172;2023-03-12T09:19:44;4.60;99.90
8939;DHT22;4504;48.810;9.172;2023-03-12T09:22:11;4.70;99.90
8939;DHT22;4504;48.810;9.172;2023-03-12T09:24:38;4.70;99.90
8939;DHT22;4504;48.810;9.172;2023-03-12T09:27:05;4.80;99.90
8939;DHT22;4504;48.810;9.172;2023-03-12T09:29:31;4.80;99.90
8939;DHT22;4504;48.810;9.172;2023-03-12T09:31:59;4.90;99.90
8939;DHT22;4504;48.810;9.172;2023-03-12T09:34:26;4.90;99.90
8939;DHT22;4504;48.810;9.172;2023-03-12T09:36:54;5.00;99.90
8939;DHT22;4504;48.810;9.172;2023-03-12T09:39:21;5.00;99.90
8939;DHT22;4504;48.810;9.172;2023-03-12T09:41:49;5.10;99.90
8939;DHT22;4504;48.810;9.172;2023-03-12T09:44:20;5.10;99.90
8939;DHT22;4504;48.810;9.172;2023-03-12T09:46:50;5.10;99.90
8939;DHT22;4504;48.810;9.172;2023-03-12T09:49:22;5.20;99.90
8939;DHT22;4504;48.810;9.172;2023-03-12T09:51:56;5.20;99.90
8939;DHT22;4504;48.810;9.172;2023-03-12T09:54:28;5.20;99.90
8939;DHT22;4504;48.810;9.172;2023-03-12T09:57:02;5.40;99.90
8939;DHT22;4504;48.810;9.172;2023-03-12T09:59:29;5.30;99.90
8939;DHT22;4504;48.810;9.172;2023-03-12T10:01:59;5.40;99.90
8939;DHT22;4504;48.810;9.172;2023-03-12T10:04:40;5.40;99.90
8939;DHT22;4504;48.810;9.172;2023-03-12T10:07:13;5.50;99.90
8939;DHT22;4504;48.810;9.172;2023-03-12T10:10:04;5.60;99.90
8939;DHT22;4504;48.810;9.172;2023-03-12T10:12:42;5.60;99.90
8939;DHT22;4504;48.810;9.172;2023-03-12T10:15:21;5.70;99.90
8939;DHT22;4504;48.810;9.172;2023-03-12T10:17:57;5.80;99.90
8939;DHT22;4504;48.810;9.172;2023-03-12T10:23:29;5.90;99.90
8939;DHT22;4504;48.810;9.172;2023-03-12T10:26:04;6.00;99.90
8939;DHT22;4504;48.810;9.172;2023-03-12T10:28:35;6.00;99.90
8939;DHT22;4504;48.810;9.172;2023-03-12T10:31:05;6.20;99.90
8939;DHT22;4504;48.810;9.172;2023-03-12T10:33:40;6.30;99.90
8939;DHT22;4504;48.810;9.172;2023-03-12T10:36:15;6.50;99.90
8939;DHT22;4504;48.810;9.172;2023-03-12T10:38:44;6.50;99.90
8939;DHT22;4504;48.810;9.172;2023-03-12T10:41:18;6.50;99.90
8939;DHT22;4504;48.810;9.172;2023-03-12T10:43:46;6.70;99.90
8939;DHT22;4504;48.810;9.172;2023-03-12T10:46:42;6.80;99.90
8939;DHT22;4504;48.810;9.172;2023-03-12T10:49:30;7.10;99.90
8939;DHT22;4504;48.810;9.172;2023-03-12T10:52:00;7.20;99.90
8939;DHT22;4504;48.810;9.172;2023-03-12T10:54:32;7.30;99.90
8939;DHT22;4504;48.810;9.172;2023-03-12T10:57:00;7.40;99.90
8939;DHT22;4504;48.810;9.172;2023-03-12T10:59:29;7.60;99.90
8939;DHT22;4504;48.810;9.172;2023-03-12T11:01:57;7.70;99.90
8939;DHT22;4504;48.810;9.172;2023-03-12T11:04:26;7.80;99.90
8939;DHT22;4504;48.810;9.172;2023-03-12T11:07:15;7.80;99.90
8939;DHT22;4504;48.810;9.172;2023-03-12T11:09:45;7.80;99.90
8939;DHT22;4504;48.810;9.172;2023-03-12T11:12:24;7.90;99.90
8939;DHT22;4504;48.810;9.172;2023-03-12T11:14:51;7.90;99.90
8939;DHT22;4504;48.810;9.172;2023-03-12T11:17:20;7.90;99.90
8939;DHT22;4504;48.810;9.172;2023-03-12T11:19:47;8.00;99.90
8939;DHT22;4504;48.810;9.172;2023-03-12T11:22:26;8.10;99.90
8939;DHT22;4504;48.810;9.172;2023-03-12T11:24:57;8.20;99.90
8939;DHT22;4504;48.810;9.172;2023-03-12T11:27:31;8.30;99.90
8939;DHT22;4504;48.810;9.172;2023-03-12T11:30:02;8.40;99.90
8939;DHT22;4504;48.810;9.172;2023-03-12T11:32:33;8.50;99.90
8939;DHT22;4504;48.810;9.172;2023-03-12T11:35:02;8.70;99.90
8939;DHT22;4504;48.810;9.172;2023-03-12T11:37:42;8.90;99.90
8939;DHT22;4504;48.810;9.172;2023-03-12T11:40:28;9.00;99.90
8939;DHT22;4504;48.810;9.172;2023-03-12T11:43:16;9.10;99.90
8939;DHT22;4504;48.810;9.172;2023-03-12T11:45:57;9.10;99.90
8939;DHT22;4504;48.810;9.172;2023-03-12T11:48:35;9.20;99.90
8939;DHT22;4504;48.810;9.172;2023-03-12T11:51:16;9.30;99.90
8939;DHT22;4504;48.810;9.172;2023-03-12T11:53:57;9.50;99.90
8939;DHT22;4504;48.810;9.172;2023-03-12T11:56:29;9.60;99.90
8939;DHT22;4504;48.810;9.172;2023-03-12T11:59:06;9.70;99.90
8939;DHT22;4504;48.810;9.172;2023-03-12T12:01:44;9.70;99.90
8939;DHT22;4504;48.810;9.172;2023-03-12T12:07:18;9.70;99.90
8939;DHT22;4504;48.810;9.172;2023-03-12T12:09:54;9.70;99.90
8939;DHT22;4504;48.810;9.172;2023-03-12T12:12:36;9.70;99.90
8939;DHT22;4504;48.810;9.172;2023-03-12T12:15:14;9.70;99.90
8939;DHT22;4504;48.810;9.172;2023-03-12T12:17:54;9.80;99.90
8939;DHT22;4504;48.810;9.172;2023-03-12T12:20:38;9.70;99.90
8939;DHT22;4504;48.810;9.172;2023-03-12T12:23:14;9.80;99.90
8939;DHT22;4504;48.810;9.172;2023-03-12T12:25:51;10.00;99.90
8939;DHT22;4504;48.810;9.172;2023-03-12T12:28:29;10.00;99.90
8939;DHT22;4504;48.810;9.172;2023-03-12T12:31:24;10.10;99.90
8939;DHT22;4504;48.810;9.172;2023-03-12T12:34:10;10.10;99.90
8939;DHT22;4504;48.810;9.172;2023-03-12T12:36:43;10.20;99.90
8939;DHT22;4504;48.810;9.172;2023-03-12T12:39:14;10.20;99.90
8939;DHT22;4504;48.810;9.172;2023-03-12T12:41:47;10.20;99.90
8939;DHT22;4504;48.810;9.172;2023-03-12T12:44:20;10.20;99.90
8939;DHT22;4504;48.810;9.172;2023-03-12T12:46:52;10.20;99.90
8939;DHT22;4504;48.810;9.172;2023-03-12T12:49:25;10.20;99.90
8939;DHT22;4504;48.810;9.172;2023-03-12T12:51:54;10.20;99.90
8939;DHT22;4504;48.810;9.172;2023-03-12T12:54:29;10.20;99.90
8939;DHT22;4504;48.810;9.172;2023-03-12T12:57:02;10.30;99.90
8939;DHT22;4504;48.810;9.172;2023-03-12T12:59:36;10.30;99.90
8939;DHT22;4504;48.810;9.172;2023-03-12T13:02:15;10.30;99.90
8939;DHT22;4504;48.810;9.172;2023-03-12T13:04:43;10.30;99.90
8939;DHT22;4504;48.810;9.172;2023-03-12T13:07:31;10.30;99.90
8939;DHT22;4504;48.810;9.172;2023-03-12T13:10:05;10.40;99.90
8939;DHT22;4504;48.810;9.172;2023-03-12T13:12:35;10.30;99.90
8939;DHT22;4504;48.810;9.172;2023-03-12T13:15:33;10.30;99.90
8939;DHT22;4504;48.810;9.172;2023-03-12T13:18:17;10.30;99.90
8939;DHT22;4504;48.810;9.172;2023-03-12T13:21:09;10.40;99.90
8939;DHT22;4504;48.810;9.172;2023-03-12T13:23:45;10.40;99.90
8939;DHT22;4504;48.810;9.172;2023-03-12T13:26:19;10.40;99.90
8939;DHT22;4504;48.810;9.172;2023-03-12T13:29:10;10.60;99.90
8939;DHT22;4504;48.810;9.172;2023-03-12T13:31:41;10.60;99.90
8939;DHT22;4504;48.810;9.172;2023-03-12T13:37:28;10.90;99.90
8939;DHT22;4504;48.810;9.172;2023-03-12T13:39:59;11.00;99.90
8939;DHT22;4504;48.810;9.172;2023-03-12T13:42:40;10.90;99.90
8939;DHT22;4504;48.810;9.172;2023-03-12T13:45:22;10.90;99.90
8939;DHT22;4504;48.810;9.172;2023-03-12T13:47:54;10.90;99.90
8939;DHT22;4504;48.810;9.172;2023-03-12T13:50:22;10.80;99.90
8939;DHT22;4504;48.810;9.172;2023-03-12T13:53:02;10.70;99.90
8939;DHT22;4504;48.810;9.172;2023-03-12T13:55:31;10.80;99.90
8939;DHT22;4504;48.810;9.172;2023-03-12T13:58:03;10.90;99.90
8939;DHT22;4504;48.810;9.172;2023-03-12T14:00:37;10.90;99.90
8939;DHT22;4504;48.810;9.172;2023-03-12T14:03:13;10.90;99.90
8939;DHT22;4504;48.810;9.172;2023-03-12T14:05:49;11.00;99.90
8939;DHT22;4504;48.810;9.172;2023-03-12T14:08:45;11.10;99.90
8939;DHT22;4504;48.810;9.172;2023-03-12T14:11:36;11.10;99.90
8939;DHT22;4504;48.810;9.172;2023-03-12T14:17:14;11.00;99.90
8939;DHT22;4504;48.810;9.172;2023-03-12T14:19:46;11.10;99.90
8939;DHT22;4504;48.810;9.172;2023-03-12T14:22:15;11.00;99.90
8939;DHT22;4504;48.810;9.172;2023-03-12T14:24:50;11.00;99.90
8939;DHT22;4504;48.810;9.172;2023-03-12T14:27:23;11.00;99.90
8939;DHT22;4504;48.810;9.172;2023-03-12T14:29:55;11.00;99.90
8939;DHT22;4504;48.810;9.172;2023-03-12T14:32:25;10.90;99.90
8939;DHT22;4504;48.810;9.172;2023-03-12T14:35:03;11.00;99.90
8939;DHT22;4504;48.810;9.172;2023-03-12T14:37:37;11.00;99.90
8939;DHT22;4504;48.810;9.172;2023-03-12T14:40:11;11.10;99.90
8939;DHT22;4504;48.810;9.172;2023-03-12T14:42:40;11.10;99.90
8939;DHT22;4504;48.810;9.172;2023-03-12T14:45:11;11.20;99.90
8939;DHT22;4504;48.810;9.172;2023-03-12T14:47:39;11.20;99.90
8939;DHT22;4504;48.810;9.172;2023-03-12T14:50:16;11.30;99.90
8939;DHT22;4504;48.810;9.172;2023-03-12T14:52:43;11.30;99.90
8939;DHT22;4504;48.810;9.172;2023-03-12T14:55:13;11.40;99.90
8939;DHT22;4504;48.810;9.172;2023-03-12T14:57:43;11.40;99.90
8939;DHT22;4504;48.810;9.172;2023-03-12T15:00:21;11.50;99.90
8939;DHT22;4504;48.810;9.172;2023-03-12T15:02:51;11.50;99.90
8939;DHT22;4504;48.810;9.172;2023-03-12T15:05:21;11.60;99.90
8939;DHT22;4504;48.810;9.172;2023-03-12T15:07:49;11.70;99.90
8939;DHT22;4504;48.810;9.172;2023-03-12T15:10:21;11.80;99.90
8939;DHT22;4504;48.810;9.172;2023-03-12T15:12:49;11.90;99.90
8939;DHT22;4504;48.810;9.172;2023-03-12T15:15:28;12.00;99.90
8939;DHT22;4504;48.810;9.172;2023-03-12T15:17:57;12.10;99.90
8939;DHT22;4504;48.810;9.172;2023-03-12T15:20:26;12.20;99.90
8939;DHT22;4504;48.810;9.172;2023-03-12T15:22:53;12.30;99.90
8939;DHT22;4504;48.810;9.172;2023-03-12T15:25:22;12.30;99.90
8939;DHT22;4504;48.810;9.172;2023-03-12T15:28:00;12.30;99.90
8939;DHT22;4504;48.810;9.172;2023-03-12T15:30:27;12.40;99.90
8939;DHT22;4504;48.810;9.172;2023-03-12T15:33:09;12.30;99.90
8939;DHT22;4504;48.810;9.172;2023-03-12T15:35:40;12.30;99.90
8939;DHT22;4504;48.810;9.172;2023-03-12T15:38:17;12.30;99.90
8939;DHT22;4504;48.810;9.172;2023-03-12T15:40:49;12.30;99.90
8939;DHT22;4504;48.810;9.172;2023-03-12T15:43:20;12.20;99.90
8939;DHT22;4504;48.810;9.172;2023-03-12T15:45:55;12.20;99.90
8939;DHT22;4504;48.810;9.172;2023-03-12T15:48:27;12.20;99.90
8939;DHT22;4504;48.810;9.172;2023-03-12T15:50:56;12.10;99.90
8939;DHT22;4504;48.810;9.172;2023-03-12T15:53:26;12.00;99.90
8939;DHT22;4504;48.810;9.172;2023-03-12T15:56:00;12.00;99.90
8939;DHT22;4504;48.810;9.172;2023-03-12T15:58:30;11.90;99.90
8939;DHT22;4504;48.810;9.172;2023-03-12T16:01:09;11.80;99.90
8939;DHT22;4504;48.810;9.172;2023-03-12T16:03:37;11.80;99.90
8939;DHT22;4504;48.810;9.172;2023-03-12T16:06:08;11.80;99.90
8939;DHT22;4504;48.810;9.172;2023-03-12T16:08:38;11.80;99.90
8939;DHT22;4504;48.810;9.172;2023-03-12T16:11:13;11.90;99.90
8939;DHT22;4504;48.810;9.172;2023-03-12T16:13:42;11.80;99.90
8939;DHT22;4504;48.810;9.172;2023-03-12T16:16:11;11.80;99.90
8939;DHT22;4504;48.810;9.172;2023-03-12T16:18:39;11.80;99.90
8939;DHT22;4504;48.810;9.172;2023-03-12T16:21:08;11.70;99.90
8939;DHT22;4504;48.810;9.172;2023-03-12T16:23:35;11.70;99.90
8939;DHT22;4504;48.810;9.172;2023-03-12T16:26:03;11.70;99.90
8939;DHT22;4504;48.810;9.172;2023-03-12T16:28:33;11.70;99.90
8939;DHT22;4504;48.810;9.172;2023-03-12T16:31:00;11.70;99.90
8939;DHT22;4504;48.810;9.172;2023-03-12T16:33:27;11.70;99.90
8939;DHT22;4504;48.810;9.172;2023-03-12T16:35:54;11.70;99.90
8939;DHT22;4504;48.810;9.172;2023-03-12T16:38:23;11.70;99.90
8939;DHT22;4504;48.810;9.172;2023-03-12T16:40:50;11.70;99.90
8939;DHT22;4504;48.810;9.172;2023-03-12T16:43:20;11.70;99.90
8939;DHT22;4504;48.810;9.172;2023-03-12T16:45:48;11.60;99.90
8939;DHT22;4504;48.810;9.172;2023-03-12T16:48:17;11.60;99.90